sensor_id;sensor_type;location;lat;lon;timestamp;temperature;humidity
70947;DHT22;58605;48.700;8.760;2023-04-01T00:00:50;9.30;99.90
70947;DHT22;58605;48.700;8.760;2023-04-01T00:03:18;9.40;99.90
70947;DHT22;58605;48.700;8.760;2023-04-01T00:05:45;9.40;99.90
70947;DHT22;58605;48.700;8.760;2023-04-01T00:08:12;9.30;99.90
70947;DHT22;58605;48.700;8.760;2023-04-01T00:10:38;9.30;99.90
70947;DHT22;58605;48.700;8.760;2023-04-01T00:13:06;9.30;99.90
70947;DHT22;58605;48.700;8.760;2023-04-01T00:15:33;9.30;99.90
70947;DHT22;58605;48.700;8.760;2023-04-01T00:18:00;9.30;99.90
70947;DHT22;58605;48.700;8.760;2023-04-01T00:20:27;9.30;99.90
70947;DHT22;58605;48.700;8.760;2023-04-01T00:22:53;9.30;99.90
70947;DHT22;58605;48.700;8.760;2023-04-01T00:25:19;9.30;99.90
70947;DHT22;58605;48.700;8.760;2023-04-01T00:27:46;9.30;99.90
70947;DHT22;58605;48.700;8.760;2023-04-01T00:30:14;9.40;99.90
70947;DHT22;58605;48.700;8.760;2023-04-01T00:32:41;9.30;99.90
70947;DHT22;58605;48.700;8.760;2023-04-01T00:35:07;9.40;99.90
70947;DHT22;58605;48.700;8.760;2023-04-01T00:37:35;9.40;99.90
70947;DHT22;58605;48.700;8.760;2023-04-01T00:40:03;9.50;99.90
70947;DHT22;58605;48.700;8.760;2023-04-01T00:42:30;9.60;99.90
70947;DHT22;58605;48.700;8.760;2023-04-01T00:44:56;9.50;99.90
70947;DHT22;58605;48.700;8.760;2023-04-01T00:47:25;9.60;99.90
70947;DHT22;58605;48.700;8.760;2023-04-01T00:49:53;9.60;99.90
70947;DHT22;58605;48.700;8.760;2023-04-01T00:52:22;9.60;99.90
70947;DHT22;58605;48.700;8.760;2023-04-01T00:54:54;9.60;99.90
70947;DHT22;58605;48.700;8.760;2023-04-01T00:57:25;9.60;99.90
70947;DHT22;58605;48.700;8.760;2023-04-01T00:59:54;9.60;99.90
70947;DHT22;58605;48.700;8.760;2023-04-01T01:02:38;9.70;99.90
70947;DHT22;58605;48.700;8.760;2023-04-01T01:05:06;9.90;99.90
70947;DHT22;58605;48.700;8.760;2023-04-01T01:07:36;9.80;99.90
70947;DHT22;58605;48.700;8.760;2023-04-01T01:10:10;9.70;99.90
70947;DHT22;58605;48.700;8.760;2023-04-01T01:12:40;9.60;99.90
70947;DHT22;58605;48.700;8.760;2023-04-01T01:15:17;9.50;99.90
70947;DHT22;58605;48.700;8.760;2023-04-01T01:17:56;9.60;99.90
70947;DHT22;58605;48.700;8.760;2023-04-01T01:20:49;9.50;99.90
70947;DHT22;58605;48.700;8.760;2023-04-01T01:23:47;9.50;99.90
70947;DHT22;58605;48.700;8.760;2023-04-01T01:26:46;9.50;99.90
70947;DHT22;58605;48.700;8.760;2023-04-01T01:29:38;9.40;99.90
70947;DHT22;58605;48.700;8.760;2023-04-01T01:32:18;9.30;99.90
70947;DHT22;58605;48.700;8.760;2023-04-01T01:34:49;9.20;99.90
70947;DHT22;58605;48.700;8.760;2023-04-01T01:37:22;9.20;99.90
70947;DHT22;58605;48.700;8.760;2023-04-01T01:39:54;9.20;99.90
70947;DHT22;58605;48.700;8.760;2023-04-01T01:42:24;9.30;99.90
70947;DHT22;58605;48.700;8.760;2023-04-01T01:44:52;9.30;99.90
70947;DHT22;58605;48.700;8.760;2023-04-01T01:47:26;9.40;99.90
70947;DHT22;58605;48.700;8.760;2023-04-01T01:49:54;9.40;99.90
70947;DHT22;58605;48.700;8.760;2023-04-01T01:52:23;9.30;99.90
70947;DHT22;58605;48.700;8.760;2023-04-01T01:54:50;9.30;99.90
70947;DHT22;58605;48.700;8.760;2023-04-01T01:57:18;9.20;99.90
70947;DHT22;58605;48.700;8.760;2023-04-01T01:59:46;9.30;99.90
70947;DHT22;58605;48.700;8.760;2023-04-01T02:02:13;9.30;99.90
70947;DHT22;58605;48.700;8.760;2023-04-01T02:04:42;9.30;99.90
70947;DHT22;58605;48.700;8.760;2023-04-01T02:07:12;9.30;99.90
70947;DHT22;58605;48.700;8.760;2023-04-01T02:09:41;9.30;99.90
70947;DHT22;58605;48.700;8.760;2023-04-01T02:12:08;9.20;99.90
70947;DHT22;58605;48.700;8.760;2023-04-01T02:14:39;9.20;99.90
70947;DHT22;58605;48.700;8.760;2023-04-01T02:17:10;9.20;99.90
70947;DHT22;58605;48.700;8.760;2023-04-01T02:19:39;9.20;99.90
70947;DHT22;58605;48.700;8.760;2023-04-01T02:22:10;9.20;99.90
70947;DHT22;58605;48.700;8.760;2023-04-01T02:24:39;9.20;99.90
70947;DHT22;58605;48.700;8.760;2023-04-01T02:27:07;9.20;99.90
70947;DHT22;58605;48.700;8.760;2023-04-01T02:29:34;9.10;99.90
70947;DHT22;58605;48.700;8.760;2023-04-01T02:32:00;9.10;99.90
70947;DHT22;58605;48.700;8.760;2023-04-01T02:34:28;9.10;99.90
70947;DHT22;58605;48.700;8.760;2023-04-01T02:36:55;9.10;99.90
70947;DHT22;58605;48.700;8.760;2023-04-01T02:39:22;9.00;99.90
70947;DHT22;58605;48.700;8.760;2023-04-01T02:41:50;9.00;99.90
70947;DHT22;58605;48.700;8.760;2023-04-01T02:44:16;9.10;99.90
70947;DHT22;58605;48.700;8.760;2023-04-01T02:46:42;9.10;99.90
70947;DHT22;58605;48.700;8.760;2023-04-01T02:49:08;9.10;99.90
70947;DHT22;58605;48.700;8.760;2023-04-01T02:51:34;9.10;99.90
70947;DHT22;58605;48.700;8.760;2023-04-01T02:54:00;9.10;99.90
70947;DHT22;58605;48.700;8.760;2023-04-01T02:56:26;9.10;99.90
70947;DHT22;58605;48.700;8.760;2023-04-01T02:58:54;9.10;99.90
70947;DHT22;58605;48.700;8.760;2023-04-01T03:01:21;9.20;99.90
70947;DHT22;58605;48.700;8.760;2023-04-01T03:03:47;9.10;99.90
70947;DHT22;58605;48.700;8.760;2023-04-01T03:06:16;9.10;99.90
70947;DHT22;58605;48.700;8.760;2023-04-01T03:08:42;9.00;99.90
70947;DHT22;58605;48.700;8.760;2023-04-01T03:11:09;9.00;99.90
70947;DHT22;58605;48.700;8.760;2023-04-01T03:13:35;9.00;99.90
70947;DHT22;58605;48.700;8.760;2023-04-01T03:16:03;9.00;99.90
70947;DHT22;58605;48.700;8.760;2023-04-01T03:18:29;9.00;99.90
70947;DHT22;58605;48.700;8.760;2023-04-01T03:20:55;8.90;99.90
70947;DHT22;58605;48.700;8.760;2023-04-01T03:23:21;8.90;99.90
70947;DHT22;58605;48.700;8.760;2023-04-01T03:25:47;8.90;99.90
70947;DHT22;58605;48.700;8.760;2023-04-01T03:28:13;8.80;99.90
70947;DHT22;58605;48.700;8.760;2023-04-01T03:30:40;8.80;99.90
70947;DHT22;58605;48.700;8.760;2023-04-01T03:33:07;8.80;99.90
70947;DHT22;58605;48.700;8.760;2023-04-01T03:35:33;8.80;99.90
70947;DHT22;58605;48.700;8.760;2023-04-01T03:38:01;8.90;99.90
70947;DHT22;58605;48.700;8.760;2023-04-01T03:40:27;8.90;99.90
70947;DHT22;58605;48.700;8.760;2023-04-01T03:42:53;8.90;99.90
70947;DHT22;58605;48.700;8.760;2023-04-01T03:45:19;8.90;99.90
70947;DHT22;58605;48.700;8.760;2023-04-01T03:47:45;8.90;99.90
70947;DHT22;58605;48.700;8.760;2023-04-01T03:50:12;8.80;99.90
70947;DHT22;58605;48.700;8.760;2023-04-01T03:52:39;8.70;99.90
70947;DHT22;58605;48.700;8.760;2023-04-01T03:55:05;8.70;99.90
70947;DHT22;58605;48.700;8.760;2023-04-01T03:57:31;8.70;99.90
70947;DHT22;58605;48.700;8.760;2023-04-01T03:59:57;8.70;99.90
70947;DHT22;58605;48.700;8.760;2023-04-01T04:02:23;8.70;99.90
70947;DHT22;58605;48.700;8.760;2023-04-01T04:04:49;8.70;99.90
70947;DHT22;58605;48.700;8.760;2023-04-01T04:07:17;8.70;99.90
70947;DHT22;58605;48.700;8.760;2023-04-01T04:09:42;8.70;99.90
70947;DHT22;58605;48.700;8.760;2023-04-01T04:12:08;8.70;99.90
70947;DHT22;58605;48.700;8.760;2023-04-01T04:14:35;8.70;99.90
70947;DHT22;58605;48.700;8.760;2023-04-01T04:17:00;8.70;99.90
70947;DHT22;58605;48.700;8.760;2023-04-01T04:19:26;8.70;99.90
70947;DHT22;58605;48.700;8.760;2023-04-01T04:21:56;8.70;99.90
70947;DHT22;58605;48.700;8.760;2023-04-01T04:24:24;8.70;99.90
70947;DHT22;58605;48.700;8.760;2023-04-01T04:26:50;8.70;99.90
70947;DHT22;58605;48.700;8.760;2023-04-01T04:29:16;8.70;99.90
70947;DHT22;58605;48.700;8.760;2023-04-01T04:31:42;8.70;99.90
70947;DHT22;58605;48.700;8.760;2023-04-01T04:34:09;8.80;99.90
70947;DHT22;58605;48.700;8.760;2023-04-01T04:36:35;8.80;99.90
70947;DHT22;58605;48.700;8.760;2023-04-01T04:39:01;8.90;99.90
70947;DHT22;58605;48.700;8.760;2023-04-01T04:41:30;8.90;99.90
70947;DHT22;58605;48.700;8.760;2023-04-01T04:43:56;8.90;99.90
70947;DHT22;58605;48.700;8.760;2023-04-01T04:46:24;8.90;99.90
70947;DHT22;58605;48.700;8.760;2023-04-01T04:48:50;9.00;99.90
70947;DHT22;58605;48.700;8.760;2023-04-01T04:51:18;8.90;99.90
70947;DHT22;58605;48.700;8.760;2023-04-01T04:53:46;8.90;99.90
70947;DHT22;58605;48.700;8.760;2023-04-01T04:56:12;8.90;99.90
70947;DHT22;58605;48.700;8.760;2023-04-01T04:58:40;8.90;99.90
70947;DHT22;58605;48.700;8.760;2023-04-01T05:01:07;8.90;99.90
70947;DHT22;58605;48.700;8.760;2023-04-01T05:03:33;8.90;99.90
70947;DHT22;58605;48.700;8.760;2023-04-01T05:05:59;8.80;99.90
70947;DHT22;58605;48.700;8.760;2023-04-01T05:08:25;8.70;99.90
70947;DHT22;58605;48.700;8.760;2023-04-01T05:10:53;8.70;99.90
70947;DHT22;58605;48.700;8.760;2023-04-01T05:13:19;8.70;99.90
70947;DHT22;58605;48.700;8.760;2023-04-01T05:15:46;8.60;99.90
70947;DHT22;58605;48.700;8.760;2023-04-01T05:18:12;8.60;99.90
70947;DHT22;58605;48.700;8.760;2023-04-01T05:20:38;8.70;99.90
70947;DHT22;58605;48.700;8.760;2023-04-01T05:23:04;8.70;99.90
70947;DHT22;58605;48.700;8.760;2023-04-01T05:25:30;8.70;99.90
70947;DHT22;58605;48.700;8.760;2023-04-01T05:27:56;8.60;99.90
70947;DHT22;58605;48.700;8.760;2023-04-01T05:30:22;8.60;99.90
70947;DHT22;58605;48.700;8.760;2023-04-01T05:32:50;8.60;99.90
70947;DHT22;58605;48.700;8.760;2023-04-01T05:35:16;8.50;99.90
70947;DHT22;58605;48.700;8.760;2023-04-01T05:37:42;8.50;99.90
70947;DHT22;58605;48.700;8.760;2023-04-01T05:40:09;8.60;99.90
70947;DHT22;58605;48.700;8.760;2023-04-01T05:42:35;8.60;99.90
70947;DHT22;58605;48.700;8.760;2023-04-01T05:45:01;8.60;99.90
70947;DHT22;58605;48.700;8.760;2023-04-01T05:47:27;8.60;99.90
70947;DHT22;58605;48.700;8.760;2023-04-01T05:49:54;8.60;99.90
70947;DHT22;58605;48.700;8.760;2023-04-01T05:52:21;8.70;99.90
70947;DHT22;58605;48.700;8.760;2023-04-01T05:54:47;8.70;99.90
70947;DHT22;58605;48.700;8.760;2023-04-01T05:57:12;8.60;99.90
70947;DHT22;58605;48.700;8.760;2023-04-01T05:59:39;8.60;99.90
70947;DHT22;58605;48.700;8.760;2023-04-01T06:02:05;8.60;99.90
70947;DHT22;58605;48.700;8.760;2023-04-01T06:04:37;8.60;99.90
70947;DHT22;58605;48.700;8.760;2023-04-01T06:07:11;8.70;99.90
70947;DHT22;58605;48.700;8.760;2023-04-01T06:09:37;8.60;99.90
70947;DHT22;58605;48.700;8.760;2023-04-01T06:12:22;8.70;99.90
70947;DHT22;58605;48.700;8.760;2023-04-01T06:15:02;8.70;99.90
70947;DHT22;58605;48.700;8.760;2023-04-01T06:17:43;8.60;99.90
70947;DHT22;58605;48.700;8.760;2023-04-01T06:20:17;8.60;99.90
70947;DHT22;58605;48.700;8.760;2023-04-01T06:23:05;8.60;99.90
70947;DHT22;58605;48.700;8.760;2023-04-01T06:25:47;8.60;99.90
70947;DHT22;58605;48.700;8.760;2023-04-01T06:28:39;8.60;99.90
70947;DHT22;58605;48.700;8.760;2023-04-01T06:31:14;8.60;99.90
70947;DHT22;58605;48.700;8.760;2023-04-01T06:33:52;8.50;99.90
70947;DHT22;58605;48.700;8.760;2023-04-01T06:36:41;8.40;99.90
70947;DHT22;58605;48.700;8.760;2023-04-01T06:39:22;8.30;99.90
70947;DHT22;58605;48.700;8.760;2023-04-01T06:42:11;8.40;99.90
70947;DHT22;58605;48.700;8.760;2023-04-01T06:44:47;8.40;99.90
70947;DHT22;58605;48.700;8.760;2023-04-01T06:47:30;8.40;99.90
70947;DHT22;58605;48.700;8.760;2023-04-01T06:50:05;8.40;99.90
70947;DHT22;58605;48.700;8.760;2023-04-01T06:52:41;8.40;99.90
70947;DHT22;58605;48.700;8.760;2023-04-01T06:55:23;8.40;99.90
70947;DHT22;58605;48.700;8.760;2023-04-01T06:57:53;8.40;99.90
70947;DHT22;58605;48.700;8.760;2023-04-01T07:00:27;8.40;99.90
70947;DHT22;58605;48.700;8.760;2023-04-01T07:03:00;8.40;99.90
70947;DHT22;58605;48.700;8.760;2023-04-01T07:05:35;8.50;99.90
70947;DHT22;58605;48.700;8.760;2023-04-01T07:08:03;8.50;99.90
70947;DHT22;58605;48.700;8.760;2023-04-01T07:10:35;8.60;99.90
70947;DHT22;58605;48.700;8.760;2023-04-01T07:13:09;8.60;99.90
70947;DHT22;58605;48.700;8.760;2023-04-01T07:15:39;8.60;99.90
70947;DHT22;58605;48.700;8.760;2023-04-01T07:18:12;8.50;99.90
70947;DHT22;58605;48.700;8.760;2023-04-01T07:20:40;8.60;99.90
70947;DHT22;58605;48.700;8.760;2023-04-01T07:23:10;8.60;99.90
70947;DHT22;58605;48.700;8.760;2023-04-01T07:25:41;8.70;99.90
70947;DHT22;58605;48.700;8.760;2023-04-01T07:28:12;8.70;99.90
70947;DHT22;58605;48.700;8.760;2023-04-01T07:30:47;8.80;99.90
70947;DHT22;58605;48.700;8.760;2023-04-01T07:33:20;8.80;99.90
70947;DHT22;58605;48.700;8.760;2023-04-01T07:35:54;8.80;99.90
70947;DHT22;58605;48.700;8.760;2023-04-01T07:38:31;8.90;99.90
70947;DHT22;58605;48.700;8.760;2023-04-01T07:41:04;9.00;99.90
70947;DHT22;58605;48.700;8.760;2023-04-01T07:43:42;9.00;99.90
70947;DHT22;58605;48.700;8.760;2023-04-01T07:46:18;8.90;99.90
70947;DHT22;58605;48.700;8.760;2023-04-01T07:48:50;8.90;99.90
70947;DHT22;58605;48.700;8.760;2023-04-01T07:51:26;9.00;99.90
70947;DHT22;58605;48.700;8.760;2023-04-01T07:54:01;8.90;99.90
70947;DHT22;58605;48.700;8.760;2023-04-01T07:56:37;8.90;99.90
70947;DHT22;58605;48.700;8.760;2023-04-01T07:59:11;8.90;99.90
70947;DHT22;58605;48.700;8.760;2023-04-01T08:01:46;8.90;99.90
70947;DHT22;58605;48.700;8.760;2023-04-01T08:04:25;8.90;99.90
70947;DHT22;58605;48.700;8.760;2023-04-01T08:06:58;8.90;99.90
70947;DHT22;58605;48.700;8.760;2023-04-01T08:09:30;8.90;99.90
70947;DHT22;58605;48.700;8.760;2023-04-01T08:12:07;8.90;99.90
70947;DHT22;58605;48.700;8.760;2023-04-01T08:14:42;8.80;99.90
70947;DHT22;58605;48.700;8.760;2023-04-01T08:17:16;8.90;99.90
70947;DHT22;58605;48.700;8.760;2023-04-01T08:19:54;8.80;99.90
70947;DHT22;58605;48.700;8.760;2023-04-01T08:22:26;8.80;99.90
70947;DHT22;58605;48.700;8.760;2023-04-01T08:24:55;8.70;99.90
70947;DHT22;58605;48.700;8.760;2023-04-01T08:27:31;8.70;99.90
70947;DHT22;58605;48.700;8.760;2023-04-01T08:30:02;8.70;99.90
70947;DHT22;58605;48.700;8.760;2023-04-01T08:32:32;8.60;99.90
70947;DHT22;58605;48.700;8.760;2023-04-01T08:35:08;8.60;99.90
70947;DHT22;58605;48.700;8.760;2023-04-01T08:37:38;8.60;99.90
70947;DHT22;58605;48.700;8.760;2023-04-01T08:40:22;8.60;99.90
70947;DHT22;58605;48.700;8.760;2023-04-01T08:43:03;8.60;99.90
70947;DHT22;58605;48.700;8.760;2023-04-01T08:46:06;8.60;99.90
70947;DHT22;58605;48.700;8.760;2023-04-01T08:48:52;8.60;99.90
70947;DHT22;58605;48.700;8.760;2023-04-01T08:51:47;8.60;99.90
70947;DHT22;58605;48.700;8.760;2023-04-01T08:54:43;8.60;99.90
70947;DHT22;58605;48.700;8.760;2023-04-01T08:57:18;8.50;99.90
70947;DHT22;58605;48.700;8.760;2023-04-01T08:59:58;8.50;99.90
70947;DHT22;58605;48.700;8.760;2023-04-01T09:03:06;8.50;99.90
70947;DHT22;58605;48.700;8.760;2023-04-01T09:05:56;8.50;99.90
70947;DHT22;58605;48.700;8.760;2023-04-01T09:08:35;8.50;99.90
70947;DHT22;58605;48.700;8.760;2023-04-01T09:11:10;8.60;99.90
70947;DHT22;58605;48.700;8.760;2023-04-01T09:17:00;8.60;99.90
70947;DHT22;58605;48.700;8.760;2023-04-01T09:19:37;8.60;99.90
70947;DHT22;58605;48.700;8.760;2023-04-01T09:22:22;8.60;99.90
70947;DHT22;58605;48.700;8.760;2023-04-01T09:27:57;8.60;99.90
70947;DHT22;58605;48.700;8.760;2023-04-01T09:30:57;8.60;99.90
70947;DHT22;58605;48.700;8.760;2023-04-01T09:33:56;8.60;99.90
70947;DHT22;58605;48.700;8.760;2023-04-01T09:36:43;8.60;99.90
70947;DHT22;58605;48.700;8.760;2023-04-01T09:39:34;8.50;99.90
70947;DHT22;58605;48.700;8.760;2023-04-01T09:42:34;8.50;99.90
70947;DHT22;58605;48.700;8.760;2023-04-01T09:45:09;8.60;99.90
70947;DHT22;58605;48.700;8.760;2023-04-01T09:47:50;8.50;99.90
70947;DHT22;58605;48.700;8.760;2023-04-01T09:50:33;8.50;99.90
70947;DHT22;58605;48.700;8.760;2023-04-01T09:53:15;8.60;99.90
70947;DHT22;58605;48.700;8.760;2023-04-01T09:56:07;8.50;99.90
70947;DHT22;58605;48.700;8.760;2023-04-01T10:14:36;8.40;99.90
70947;DHT22;58605;48.700;8.760;2023-04-01T10:20:29;8.50;99.90
70947;DHT22;58605;48.700;8.760;2023-04-01T10:23:27;8.60;99.90
70947;DHT22;58605;48.700;8.760;2023-04-01T10:26:38;8.60;99.90
70947;DHT22;58605;48.700;8.760;2023-04-01T10:32:24;8.70;99.90
70947;DHT22;58605;48.700;8.760;2023-04-01T10:38:19;8.70;99.90
70947;DHT22;58605;48.700;8.760;2023-04-01T10:44:20;8.70;99.90
70947;DHT22;58605;48.700;8.760;2023-04-01T10:50:25;8.70;99.90
70947;DHT22;58605;48.700;8.760;2023-04-01T10:53:23;8.70;99.90
70947;DHT22;58605;48.700;8.760;2023-04-01T11:02:38;8.80;99.90
70947;DHT22;58605;48.700;8.760;2023-04-01T11:21:15;8.80;99.90
70947;DHT22;58605;48.700;8.760;2023-04-01T11:23:53;8.80;99.90
70947;DHT22;58605;48.700;8.760;2023-04-01T11:26:33;8.80;99.90
70947;DHT22;58605;48.700;8.760;2023-04-01T11:29:13;8.80;99.90
70947;DHT22;58605;48.700;8.760;2023-04-01T11:31:47;8.80;99.90
70947;DHT22;58605;48.700;8.760;2023-04-01T11:34:35;8.80;99.90
70947;DHT22;58605;48.700;8.760;2023-04-01T11:37:15;8.80;99.90
70947;DHT22;58605;48.700;8.760;2023-04-01T11:39:59;8.80;99.90
70947;DHT22;58605;48.700;8.760;2023-04-01T11:42:34;8.80;99.90
70947;DHT22;58605;48.700;8.760;2023-04-01T11:45:14;8.80;99.90
70947;DHT22;58605;48.700;8.760;2023-04-01T11:51:20;8.80;99.90
70947;DHT22;58605;48.700;8.760;2023-04-01T11:53:54;8.80;99.90
70947;DHT22;58605;48.700;8.760;2023-04-01T11:56:47;8.80;99.90
70947;DHT22;58605;48.700;8.760;2023-04-01T11:59:38;8.80;99.90
70947;DHT22;58605;48.700;8.760;2023-04-01T12:02:18;8.80;99.90
70947;DHT22;58605;48.700;8.760;2023-04-01T12:04:58;8.70;99.90
70947;DHT22;58605;48.700;8.760;2023-04-01T12:07:50;8.80;99.90
70947;DHT22;58605;48.700;8.760;2023-04-01T12:10:20;8.80;99.90
70947;DHT22;58605;48.700;8.760;2023-04-01T12:12:57;8.70;99.90
70947;DHT22;58605;48.700;8.760;2023-04-01T12:15:34;8.70;99.90
70947;DHT22;58605;48.700;8.760;2023-04-01T12:18:10;8.70;99.90
70947;DHT22;58605;48.700;8.760;2023-04-01T12:20:48;8.80;99.90
70947;DHT22;58605;48.700;8.760;2023-04-01T12:26:35;8.70;99.90
70947;DHT22;58605;48.700;8.760;2023-04-01T12:29:48;8.80;99.90
70947;DHT22;58605;48.700;8.760;2023-04-01T12:32:27;8.90;99.90
70947;DHT22;58605;48.700;8.760;2023-04-01T12:35:13;8.90;99.90
70947;DHT22;58605;48.700;8.760;2023-04-01T12:37:50;8.90;99.90
70947;DHT22;58605;48.700;8.760;2023-04-01T12:46:22;8.80;99.90
70947;DHT22;58605;48.700;8.760;2023-04-01T12:52:07;8.80;99.90
70947;DHT22;58605;48.700;8.760;2023-04-01T13:01:02;8.80;99.90
70947;DHT22;58605;48.700;8.760;2023-04-01T13:03:47;9.00;99.90
70947;DHT22;58605;48.700;8.760;2023-04-01T13:06:25;9.00;99.90
70947;DHT22;58605;48.700;8.760;2023-04-01T13:08:59;9.10;99.90
70947;DHT22;58605;48.700;8.760;2023-04-01T13:11:38;9.00;99.90
70947;DHT22;58605;48.700;8.760;2023-04-01T13:14:39;9.00;99.90
70947;DHT22;58605;48.700;8.760;2023-04-01T13:17:13;9.00;99.90
70947;DHT22;58605;48.700;8.760;2023-04-01T13:19:49;9.00;99.90
70947;DHT22;58605;48.700;8.760;2023-04-01T13:22:20;9.00;99.90
70947;DHT22;58605;48.700;8.760;2023-04-01T13:24:52;9.00;99.90
70947;DHT22;58605;48.700;8.760;2023-04-01T13:27:29;9.00;99.90
70947;DHT22;58605;48.700;8.760;2023-04-01T13:30:07;9.00;99.90
70947;DHT22;58605;48.700;8.760;2023-04-01T13:32:39;9.00;99.90
70947;DHT22;58605;48.700;8.760;2023-04-01T13:35:20;9.10;99.90
70947;DHT22;58605;48.700;8.760;2023-04-01T13:37:59;9.10;99.90
70947;DHT22;58605;48.700;8.760;2023-04-01T13:40:33;9.10;99.90
70947;DHT22;58605;48.700;8.760;2023-04-01T13:43:07;9.00;99.90
70947;DHT22;58605;48.700;8.760;2023-04-01T13:45:44;9.00;99.90
70947;DHT22;58605;48.700;8.760;2023-04-01T13:48:37;9.00;99.90
70947;DHT22;58605;48.700;8.760;2023-04-01T13:51:20;9.00;99.90
70947;DHT22;58605;48.700;8.760;2023-04-01T13:54:24;8.90;99.90
70947;DHT22;58605;48.700;8.760;2023-04-01T13:57:06;9.00;99.90
70947;DHT22;58605;48.700;8.760;2023-04-01T13:59:58;9.00;99.90
70947;DHT22;58605;48.700;8.760;2023-04-01T14:02:47;9.00;99.90
70947;DHT22;58605;48.700;8.760;2023-04-01T14:05:27;9.00;99.90
70947;DHT22;58605;48.700;8.760;2023-04-01T14:08:04;9.00;99.90
70947;DHT22;58605;48.700;8.760;2023-04-01T14:10:42;9.00;99.90
70947;DHT22;58605;48.700;8.760;2023-04-01T14:13:13;9.00;99.90
70947;DHT22;58605;48.700;8.760;2023-04-01T14:15:55;9.00;99.90
70947;DHT22;58605;48.700;8.760;2023-04-01T14:21:29;9.00;99.90
70947;DHT22;58605;48.700;8.760;2023-04-01T14:24:08;8.90;99.90
70947;DHT22;58605;48.700;8.760;2023-04-01T14:27:02;9.00;99.90
70947;DHT22;58605;48.700;8.760;2023-04-01T14:29:38;9.00;99.90
70947;DHT22;58605;48.700;8.760;2023-04-01T14:32:15;9.00;99.90
70947;DHT22;58605;48.700;8.760;2023-04-01T14:34:55;9.00;99.90
70947;DHT22;58605;48.700;8.760;2023-04-01T14:37:48;9.00;99.90
70947;DHT22;58605;48.700;8.760;2023-04-01T14:40:27;9.10;99.90
70947;DHT22;58605;48.700;8.760;2023-04-01T14:49:00;9.00;99.90
70947;DHT22;58605;48.700;8.760;2023-04-01T14:51:31;9.00;99.90
70947;DHT22;58605;48.700;8.760;2023-04-01T14:54:03;9.10;99.90
70947;DHT22;58605;48.700;8.760;2023-04-01T14:56:42;9.10;99.90
70947;DHT22;58605;48.700;8.760;2023-04-01T14:59:25;9.10;99.90
70947;DHT22;58605;48.700;8.760;2023-04-01T15:01:57;9.10;99.90
70947;DHT22;58605;48.700;8.760;2023-04-01T15:04:47;9.20;99.90
70947;DHT22;58605;48.700;8.760;2023-04-01T15:10:37;9.40;99.90
70947;DHT22;58605;48.700;8.760;2023-04-01T15:13:13;9.30;99.90
70947;DHT22;58605;48.700;8.760;2023-04-01T15:15:50;9.10;99.90
70947;DHT22;58605;48.700;8.760;2023-04-01T15:18:27;9.10;99.90
70947;DHT22;58605;48.700;8.760;2023-04-01T15:21:13;9.10;99.90
70947;DHT22;58605;48.700;8.760;2023-04-01T15:23:55;9.10;99.90
70947;DHT22;58605;48.700;8.760;2023-04-01T15:26:47;9.10;99.90
70947;DHT22;58605;48.700;8.760;2023-04-01T15:29:47;9.10;99.90
70947;DHT22;58605;48.700;8.760;2023-04-01T15:32:21;9.10;99.90
70947;DHT22;58605;48.700;8.760;2023-04-01T15:34:57;9.20;99.90
70947;DHT22;58605;48.700;8.760;2023-04-01T15:37:36;9.30;99.90
70947;DHT22;58605;48.700;8.760;2023-04-01T15:40:15;9.20;99.90
70947;DHT22;58605;48.700;8.760;2023-04-01T15:42:55;9.20;99.90
70947;DHT22;58605;48.700;8.760;2023-04-01T15:45:35;9.10;99.90
70947;DHT22;58605;48.700;8.760;2023-04-01T15:48:13;9.10;99.90
70947;DHT22;58605;48.700;8.760;2023-04-01T15:50:54;9.10;99.90
70947;DHT22;58605;48.700;8.760;2023-04-01T15:53:49;9.10;99.90
70947;DHT22;58605;48.700;8.760;2023-04-01T15:59:16;9.00;99.90
70947;DHT22;58605;48.700;8.760;2023-04-01T16:01:51;9.10;99.90
70947;DHT22;58605;48.700;8.760;2023-04-01T16:04:42;9.20;99.90
70947;DHT22;58605;48.700;8.760;2023-04-01T16:07:21;9.20;99.90
70947;DHT22;58605;48.700;8.760;2023-04-01T16:10:03;9.20;99.90
70947;DHT22;58605;48.700;8.760;2023-04-01T16:12:46;9.20;99.90
70947;DHT22;58605;48.700;8.760;2023-04-01T16:15:24;9.20;99.90
70947;DHT22;58605;48.700;8.760;2023-04-01T16:18:08;9.20;99.90
70947;DHT22;58605;48.700;8.760;2023-04-01T16:20:45;9.20;99.90
70947;DHT22;58605;48.700;8.760;2023-04-01T16:23:20;9.10;99.90
70947;DHT22;58605;48.700;8.760;2023-04-01T16:25:53;9.10;99.90
70947;DHT22;58605;48.700;8.760;2023-04-01T16:28:25;9.10;99.90
70947;DHT22;58605;48.700;8.760;2023-04-01T16:30:58;9.10;99.90
70947;DHT22;58605;48.700;8.760;2023-04-01T16:33:35;9.20;99.90
70947;DHT22;58605;48.700;8.760;2023-04-01T16:36:10;9.20;99.90
70947;DHT22;58605;48.700;8.760;2023-04-01T16:38:43;9.10;99.90
70947;DHT22;58605;48.700;8.760;2023-04-01T16:41:16;9.10;99.90
70947;DHT22;58605;48.700;8.760;2023-04-01T16:43:44;9.10;99.90
70947;DHT22;58605;48.700;8.760;2023-04-01T16:46:26;9.10;99.90
70947;DHT22;58605;48.700;8.760;2023-04-01T16:49:13;9.20;99.90
70947;DHT22;58605;48.700;8.760;2023-04-01T16:51:46;9.20;99.90
70947;DHT22;58605;48.700;8.760;2023-04-01T16:54:18;9.20;99.90
70947;DHT22;58605;48.700;8.760;2023-04-01T19:04:57;9.10;99.90
70947;DHT22;58605;48.700;8.760;2023-04-01T19:07:43;9.00;99.90
70947;DHT22;58605;48.700;8.760;2023-04-01T19:10:22;9.00;99.90
70947;DHT22;58605;48.700;8.760;2023-04-01T19:13:02;9.00;99.90
70947;DHT22;58605;48.700;8.760;2023-04-01T19:15:39;9.00;99.90
70947;DHT22;58605;48.700;8.760;2023-04-01T19:18:29;8.90;99.90
70947;DHT22;58605;48.700;8.760;2023-04-01T19:21:06;8.80;99.90
70947;DHT22;58605;48.700;8.760;2023-04-01T19:26:45;8.70;99.90
70947;DHT22;58605;48.700;8.760;2023-04-01T19:29:25;8.70;99.90
70947;DHT22;58605;48.700;8.760;2023-04-01T19:32:01;8.60;99.90
70947;DHT22;58605;48.700;8.760;2023-04-01T19:34:42;8.70;99.90
70947;DHT22;58605;48.700;8.760;2023-04-01T19:37:23;8.70;99.90
70947;DHT22;58605;48.700;8.760;2023-04-01T19:39:57;8.80;99.90
70947;DHT22;58605;48.700;8.760;2023-04-01T19:42:30;8.80;99.90
70947;DHT22;58605;48.700;8.760;2023-04-01T19:45:06;8.90;99.90
70947;DHT22;58605;48.700;8.760;2023-04-01T19:47:48;8.80;99.90
70947;DHT22;58605;48.700;8.760;2023-04-01T19:50:27;8.80;99.90
70947;DHT22;58605;48.700;8.760;2023-04-01T19:53:12;8.80;99.90
70947;DHT22;58605;48.700;8.760;2023-04-01T19:55:44;8.80;99.90
70947;DHT22;58605;48.700;8.760;2023-04-01T19:58:16;8.80;99.90
70947;DHT22;58605;48.700;8.760;2023-04-01T20:00:50;8.80;99.90
70947;DHT22;58605;48.700;8.760;2023-04-01T20:03:26;8.70;99.90
70947;DHT22;58605;48.700;8.760;2023-04-01T20:06:04;8.80;99.90
70947;DHT22;58605;48.700;8.760;2023-04-01T20:08:38;8.80;99.90
70947;DHT22;58605;48.700;8.760;2023-04-01T20:11:21;8.90;99.90
70947;DHT22;58605;48.700;8.760;2023-04-01T20:14:01;8.90;99.90
70947;DHT22;58605;48.700;8.760;2023-04-01T20:19:41;9.00;99.90
70947;DHT22;58605;48.700;8.760;2023-04-01T20:22:24;9.00;99.90
70947;DHT22;58605;48.700;8.760;2023-04-01T20:24:58;8.90;99.90
70947;DHT22;58605;48.700;8.760;2023-04-01T20:27:27;8.90;99.90